Time;durP1;ratioP1;P1;durP2;ratioP2;P2;SDS_P1;SDS_P2;PMS_P1;PMS_P2;Temp;Humidity;BMP_temperature;BMP_pressure;BME280_temperature;BME280_humidity;BME280_pressure;Samples;Min_cycle;Max_cycle;Signal;HPM_P1;HPM_P2
2022/04/12 00:01:24;;;;;;;46.08;23.15;;;;;;;-0.73;100.00;95429.41;5063770;28;20119;-42
2022/04/12 00:03:51;;;;;;;39.88;22.05;;;;;;;-0.72;100.00;95431.00;5063877;28;20045;-43
2022/04/12 00:06:18;;;;;;;33.00;20.95;;;;;;;-0.80;100.00;95430.94;5064038;28;20044;-43
2022/04/12 00:08:45;;;;;;;38.75;22.13;;;;;;;-0.90;100.00;95427.63;5064618;28;20037;-42
2022/04/12 00:11:11;;;;;;;40.53;21.70;;;;;;;-0.91;100.00;95420.91;5063715;28;20045;-43
2022/04/12 00:13:39;;;;;;;41.53;22.48;;;;;;;-0.91;100.00;95415.81;5064259;28;20516;-40
2022/04/12 00:16:05;;;;;;;45.45;24.35;;;;;;;-0.90;100.00;95422.50;5063676;28;20449;-41
2022/04/12 00:21:18;;;;;;;36.70;19.02;;;;;;;-0.98;100.00;95416.38;5063187;28;20043;-41
2022/04/12 00:23:45;;;;;;;45.33;18.73;;;;;;;-1.04;100.00;95416.97;5063502;28;20072;-44
2022/04/12 00:26:12;;;;;;;32.28;17.73;;;;;;;-1.08;100.00;95410.53;5063402;28;20076;-42
2022/04/12 00:28:41;;;;;;;33.72;17.45;;;;;;;-1.09;100.00;95411.47;5063806;28;20102;-40
2022/04/12 00:31:08;;;;;;;30.92;16.80;;;;;;;-1.21;100.00;95410.06;5063096;28;20486;-42
2022/04/12 00:33:36;;;;;;;25.95;14.85;;;;;;;-1.22;100.00;95409.25;5062296;28;20102;-40
2022/04/12 00:36:04;;;;;;;36.58;14.85;;;;;;;-1.17;100.00;95401.16;5063399;28;20079;-41
2022/04/12 00:38:33;;;;;;;28.73;14.50;;;;;;;-1.18;100.00;95395.22;5063576;28;20037;-42
2022/04/12 00:41:00;;;;;;;26.75;14.15;;;;;;;-1.18;100.00;95394.44;5063563;28;20156;-40
2022/04/12 00:43:30;;;;;;;22.17;11.60;;;;;;;-1.27;100.00;95400.41;5063326;28;20079;-40
2022/04/12 00:46:00;;;;;;;24.90;11.85;;;;;;;-1.37;100.00;95401.28;5063316;28;20108;-41
2022/04/12 00:48:31;;;;;;;24.25;11.88;;;;;;;-1.35;100.00;95401.94;5062157;28;20411;-40
2022/04/12 00:50:59;;;;;;;25.27;13.27;;;;;;;-1.37;100.00;95397.91;5062718;28;20472;-43
2022/04/12 00:53:26;;;;;;;24.83;11.32;;;;;;;-1.37;100.00;95401.28;5063266;28;20044;-41
2022/04/12 00:55:54;;;;;;;18.80;10.43;;;;;;;-1.43;100.00;95396.72;5062823;28;20044;-42
2022/04/12 00:58:21;;;;;;;19.33;9.98;;;;;;;-1.48;100.00;95404.00;5063353;28;20044;-42
2022/04/12 01:00:50;;;;;;;20.70;9.73;;;;;;;-1.60;100.00;95384.72;5063556;28;20063;-43
2022/04/12 01:03:17;;;;;;;18.48;9.80;;;;;;;-1.52;100.00;95405.25;5062958;28;20057;-43
2022/04/12 01:05:44;;;;;;;17.83;8.98;;;;;;;-1.56;100.00;95401.38;5063314;28;20053;-42
2022/04/12 01:08:11;;;;;;;18.80;9.27;;;;;;;-1.52;100.00;95402.69;5063113;28;20036;-42
2022/04/12 01:10:39;;;;;;;19.40;9.38;;;;;;;-1.52;100.00;95400.13;5063137;28;20102;-42
2022/04/12 01:13:06;;;;;;;16.40;9.63;;;;;;;-1.55;100.00;95397.84;5063715;28;20048;-42
2022/04/12 01:15:33;;;;;;;21.58;9.80;;;;;;;-1.63;100.00;95406.22;5065519;28;20531;-42
2022/04/12 01:17:59;;;;;;;21.27;9.05;;;;;;;-1.70;100.00;95394.19;5065998;28;20480;-42
2022/04/12 01:20:30;;;;;;;20.40;10.07;;;;;;;-1.67;100.00;95394.69;5067257;28;20441;-41
2022/04/12 01:23:12;;;;;;;22.05;9.48;;;;;;;-1.66;100.00;95403.16;5067009;28;20036;-43
2022/04/12 01:25:39;;;;;;;16.30;10.23;;;;;;;-1.61;100.00;95404.34;5066476;28;20052;-43
2022/04/12 01:28:08;;;;;;;18.40;8.95;;;;;;;-1.63;100.00;95401.13;5066888;28;20040;-42
2022/04/12 01:30:35;;;;;;;19.92;9.43;;;;;;;-1.65;100.00;95392.00;5066710;28;20091;-44
2022/04/12 01:33:03;;;;;;;16.35;9.23;;;;;;;-1.67;100.00;95393.91;5065801;28;20048;-44
2022/04/12 01:35:30;;;;;;;18.00;9.35;;;;;;;-1.74;100.00;95404.66;5066212;28;20040;-46
2022/04/12 01:37:57;;;;;;;24.02;10.57;;;;;;;-1.76;100.00;95406.56;5067577;28;20808;-42
2022/04/12 01:40:23;;;;;;;23.98;10.85;;;;;;;-1.82;100.00;95396.91;5066565;28;20525;-44
2022/04/12 01:42:52;;;;;;;21.23;10.25;;;;;;;-1.79;100.00;95394.06;5066182;28;20056;-43
2022/04/12 01:45:21;;;;;;;26.90;10.65;;;;;;;-1.83;100.00;95402.94;5065908;28;20045;-45
2022/04/12 01:47:48;;;;;;;20.67;11.40;;;;;;;-1.85;100.00;95402.28;5066657;28;20504;-44
2022/04/12 01:50:15;;;;;;;19.25;10.88;;;;;;;-1.89;100.00;95411.19;5065774;28;20515;-44
2022/04/12 01:52:42;;;;;;;22.48;10.48;;;;;;;-2.05;100.00;95391.34;5066359;28;20036;-44
2022/04/12 01:55:10;;;;;;;21.88;10.40;;;;;;;-1.87;100.00;95404.19;5065855;28;20051;-42
2022/04/12 01:57:37;;;;;;;23.88;11.40;;;;;;;-1.94;100.00;95388.63;5066036;28;20074;-46
2022/04/12 02:00:06;;;;;;;18.08;10.63;;;;;;;-1.94;100.00;95403.13;5066450;28;20060;-43
2022/04/12 02:02:37;;;;;;;24.55;10.32;;;;;;;-2.08;100.00;95388.25;5065997;28;20044;-44
2022/04/12 02:05:05;;;;;;;20.60;9.32;;;;;;;-2.07;100.00;95402.63;5066622;28;20118;-42
2022/04/12 02:07:32;;;;;;;14.80;8.35;;;;;;;-2.17;100.00;95393.25;5066705;28;20517;-42
2022/04/12 02:09:58;;;;;;;16.23;8.43;;;;;;;-2.21;100.00;95397.03;5066570;28;20041;-42
2022/04/12 02:12:25;;;;;;;21.20;10.43;;;;;;;-2.33;100.00;95398.91;5066366;28;20568;-44
2022/04/12 02:14:52;;;;;;;16.00;9.25;;;;;;;-2.35;100.00;95394.91;5065821;28;20044;-43
2022/04/12 02:17:19;;;;;;;19.45;8.75;;;;;;;-2.29;100.00;95398.66;5065687;28;20028;-44
2022/04/12 02:19:45;;;;;;;15.63;8.48;;;;;;;-2.27;100.00;95391.66;5065248;28;20062;-43
2022/04/12 02:22:12;;;;;;;15.65;8.52;;;;;;;-2.28;100.00;95390.06;5065674;28;20048;-46
2022/04/12 02:24:39;;;;;;;15.35;8.13;;;;;;;-2.29;100.00;95384.13;5065595;28;20045;-44
2022/04/12 02:27:06;;;;;;;19.88;9.15;;;;;;;-2.36;100.00;95385.63;5066200;28;20094;-44
2022/04/12 02:29:33;;;;;;;16.50;8.57;;;;;;;-2.52;100.00;95378.53;5066369;28;20094;-43
2022/04/12 02:31:59;;;;;;;16.30;7.93;;;;;;;-2.54;100.00;95388.91;5065794;28;20078;-42
2022/04/12 02:34:26;;;;;;;23.00;9.63;;;;;;;-2.61;100.00;95395.47;5064384;28;20391;-48
2022/04/12 02:36:53;;;;;;;18.85;8.98;;;;;;;-2.60;100.00;95393.72;5065079;28;20052;-44
2022/04/12 02:39:20;;;;;;;19.90;8.02;;;;;;;-2.60;100.00;95397.06;5065463;28;20626;-43
2022/04/12 02:41:48;;;;;;;22.10;8.80;;;;;;;-2.68;100.00;95384.22;5065709;28;20070;-42
2022/04/12 02:44:16;;;;;;;16.10;8.77;;;;;;;-2.61;100.00;95400.56;5065536;28;20044;-44
2022/04/12 02:46:42;;;;;;;19.10;6.68;;;;;;;-2.60;100.00;95397.06;5065923;28;20075;-43
2022/04/12 02:49:09;;;;;;;34.35;9.05;;;;;;;-2.64;100.00;95387.28;5065456;28;20086;-43
2022/04/12 02:51:36;;;;;;;11.68;7.05;;;;;;;-2.70;100.00;95386.09;5065470;28;20523;-42
2022/04/12 02:54:03;;;;;;;16.67;6.38;;;;;;;-2.59;100.00;95391.03;5065450;28;20052;-44
2022/04/12 02:56:30;;;;;;;18.38;7.47;;;;;;;-2.55;100.00;95384.72;5066238;28;20040;-43
2022/04/12 02:58:56;;;;;;;15.90;7.35;;;;;;;-2.66;100.00;95384.06;5065177;28;20044;-47
2022/04/12 03:01:23;;;;;;;15.07;7.03;;;;;;;-2.84;100.00;95363.56;5064960;28;20053;-43
2022/04/12 03:03:50;;;;;;;18.48;6.32;;;;;;;-2.67;100.00;95385.81;5065593;28;20690;-43
2022/04/12 03:06:17;;;;;;;17.45;6.55;;;;;;;-2.69;100.00;95392.78;5064693;28;20045;-44
2022/04/12 03:08:43;;;;;;;11.07;5.53;;;;;;;-2.68;100.00;95389.31;5060932;28;20047;-41
2022/04/12 03:11:10;;;;;;;11.13;5.50;;;;;;;-2.65;100.00;95393.31;5062907;28;20076;-46
2022/04/12 03:13:37;;;;;;;13.30;6.38;;;;;;;-2.65;100.00;95398.41;5065181;28;20098;-44
2022/04/12 03:16:04;;;;;;;11.52;6.07;;;;;;;-2.67;100.00;95406.19;5065007;28;20040;-45
2022/04/12 03:18:31;;;;;;;12.07;5.60;;;;;;;-2.70;100.00;95396.28;5062954;28;20053;-42
2022/04/12 03:20:58;;;;;;;9.60;5.53;;;;;;;-2.70;100.00;95401.41;5064584;28;20785;-44
2022/04/12 03:23:25;;;;;;;12.00;6.47;;;;;;;-2.77;100.00;95405.41;5062643;28;20048;-41
2022/04/12 03:25:52;;;;;;;18.38;6.55;;;;;;;-2.79;100.00;95403.00;5064152;28;20048;-44
2022/04/12 03:28:18;;;;;;;16.45;5.72;;;;;;;-2.76;100.00;95407.00;5063477;28;20048;-44
2022/04/12 03:30:45;;;;;;;15.85;6.68;;;;;;;-2.70;100.00;95406.50;5063601;28;20879;-42
2022/04/12 03:33:12;;;;;;;15.30;6.25;;;;;;;-2.71;100.00;95404.88;5061737;28;20490;-45
2022/04/12 03:35:39;;;;;;;12.93;6.32;;;;;;;-2.71;100.00;95407.41;5062609;28;20056;-43
2022/04/12 03:38:06;;;;;;;20.30;7.03;;;;;;;-2.69;100.00;95413.19;5062411;28;20045;-44
2022/04/12 03:40:32;;;;;;;13.85;7.95;;;;;;;-2.65;100.00;95409.41;5064820;28;20048;-42
2022/04/12 03:43:01;;;;;;;26.55;8.25;;;;;;;-2.72;100.00;95413.44;5065130;28;20040;-42
2022/04/12 03:45:32;;;;;;;28.83;9.00;;;;;;;-2.77;100.00;95405.41;5065345;28;20049;-44
2022/04/12 03:47:59;;;;;;;19.85;8.38;;;;;;;-2.73;100.00;95406.75;5063662;28;20481;-42
2022/04/12 03:50:25;;;;;;;17.38;7.57;;;;;;;-2.70;100.00;95411.59;5064803;28;20037;-44
2022/04/12 03:52:53;;;;;;;15.60;7.82;;;;;;;-2.71;100.00;95408.22;5064486;28;20460;-43
2022/04/12 03:55:34;;;;;;;14.88;7.43;;;;;;;-2.74;100.00;95415.31;5060886;28;20043;-43
2022/04/12 03:58:04;;;;;;;18.13;8.38;;;;;;;-2.82;100.00;95417.75;5063615;28;20399;-45
2022/04/12 04:00:32;;;;;;;14.23;7.95;;;;;;;-2.80;100.00;95410.78;5061913;28;20037;-49
2022/04/12 04:03:00;;;;;;;17.90;8.27;;;;;;;-2.71;100.00;95420.16;5062171;28;20098;-44
2022/04/12 04:05:27;;;;;;;16.83;9.32;;;;;;;-2.76;100.00;95412.09;5062336;28;20044;-43
2022/04/12 04:07:54;;;;;;;35.58;11.80;;;;;;;-2.79;100.00;95413.19;5063822;28;20048;-42
2022/04/12 04:10:21;;;;;;;27.20;12.75;;;;;;;-2.75;100.00;95413.72;5064360;28;20083;-44
2022/04/12 04:12:48;;;;;;;32.40;13.75;;;;;;;-2.69;100.00;95418.28;5064441;28;20088;-43
2022/04/12 04:15:15;;;;;;;29.63;12.88;;;;;;;-2.73;100.00;95416.94;5063600;28;20036;-43
2022/04/12 04:17:42;;;;;;;23.83;11.93;;;;;;;-2.67;100.00;95421.50;5063009;28;20040;-43
2022/04/12 04:20:15;;;;;;;19.27;10.45;;;;;;;-2.58;100.00;95423.25;5062496;28;20121;-44
2022/04/12 04:22:42;;;;;;;16.55;8.93;;;;;;;-2.52;100.00;95420.16;5061747;28;20048;-44
2022/04/12 04:25:13;;;;;;;14.20;8.48;;;;;;;-2.50;100.00;95423.38;5062700;28;20610;-44
2022/04/12 04:27:41;;;;;;;18.48;11.00;;;;;;;-2.43;100.00;95433.84;5061333;28;20448;-46
2022/04/12 04:30:09;;;;;;;28.65;17.20;;;;;;;-2.39;100.00;95429.28;5062209;28;20469;-43
2022/04/12 04:32:37;;;;;;;21.65;11.18;;;;;;;-2.29;100.00;95435.16;5062725;28;20044;-41
2022/04/12 04:35:05;;;;;;;26.55;10.55;;;;;;;-2.22;100.00;95431.13;5061448;28;20555;-46
2022/04/12 04:37:32;;;;;;;18.48;9.52;;;;;;;-2.12;100.00;95437.03;5062795;28;20674;-45
2022/04/12 04:39:59;;;;;;;25.55;12.57;;;;;;;-1.97;100.00;95439.16;5062845;28;20036;-46
2022/04/12 04:42:27;;;;;;;60.58;26.90;;;;;;;-1.84;100.00;95434.53;5062104;28;20041;-46
2022/04/12 04:44:54;;;;;;;35.45;17.40;;;;;;;-1.71;100.00;95443.63;5061288;28;20048;-44
2022/04/12 04:47:20;;;;;;;52.17;25.13;;;;;;;-1.64;100.00;95429.34;5062141;28;20059;-43
2022/04/12 04:49:47;;;;;;;73.70;32.80;;;;;;;-1.56;100.00;95444.81;5062613;28;20053;-43
2022/04/12 04:52:14;;;;;;;54.47;26.80;;;;;;;-1.49;100.00;95438.19;5063151;28;20052;-43
2022/04/12 04:54:41;;;;;;;36.70;19.40;;;;;;;-1.37;100.00;95442.16;5062784;28;20040;-43
2022/04/12 04:57:07;;;;;;;30.83;16.35;;;;;;;-1.22;100.00;95444.25;5064131;28;20056;-43
2022/04/12 04:59:34;;;;;;;32.00;14.27;;;;;;;-1.17;100.00;95436.94;5063938;28;20036;-43
2022/04/12 05:02:01;;;;;;;31.15;15.38;;;;;;;-0.94;100.00;95451.88;5063838;28;20824;-44
2022/04/12 05:04:28;;;;;;;70.45;30.40;;;;;;;-0.79;100.00;95450.44;5064179;28;20391;-42
2022/04/12 05:06:55;;;;;;;40.45;19.95;;;;;;;-0.63;100.00;95450.59;5063836;28;20074;-42
2022/04/12 05:09:21;;;;;;;25.02;14.13;;;;;;;-0.45;100.00;95447.22;5063721;28;20045;-44
2022/04/12 05:11:48;;;;;;;19.67;10.77;;;;;;;-0.30;100.00;95455.19;5064250;28;20044;-45
2022/04/12 05:14:15;;;;;;;25.52;10.38;;;;;;;-0.13;100.00;95451.00;5063623;28;20040;-44
2022/04/12 05:16:41;;;;;;;21.08;9.32;;;;;;;-0.01;100.00;95449.78;5063912;28;20098;-41
2022/04/12 05:19:08;;;;;;;19.33;9.50;;;;;;;0.14;100.00;95453.41;5063682;28;20055;-43
2022/04/12 05:21:35;;;;;;;27.95;12.65;;;;;;;0.26;100.00;95455.72;5063994;28;20044;-43
2022/04/12 05:24:04;;;;;;;17.65;8.50;;;;;;;0.40;100.00;95457.72;5063934;28;20052;-41
2022/04/12 05:26:31;;;;;;;18.35;9.10;;;;;;;0.51;99.13;95449.78;5063805;28;20124;-41
2022/04/12 05:28:58;;;;;;;15.55;8.20;;;;;;;0.66;98.48;95467.16;5063294;28;20075;-43
2022/04/12 05:31:24;;;;;;;14.77;8.10;;;;;;;0.78;96.99;95465.13;5063147;28;20040;-43
2022/04/12 05:33:58;;;;;;;14.05;8.02;;;;;;;0.87;96.44;95459.84;5061998;28;20085;-42
2022/04/12 05:36:25;;;;;;;15.52;7.93;;;;;;;1.01;95.97;95460.22;5063539;28;21407;-41
2022/04/12 05:38:51;;;;;;;14.52;6.70;;;;;;;1.11;94.47;95460.88;5062223;28;20622;-43
2022/04/12 05:41:18;;;;;;;19.33;7.95;;;;;;;1.19;91.97;95463.50;5063054;28;20473;-42
2022/04/12 05:43:45;;;;;;;22.67;8.07;;;;;;;1.26;91.21;95459.34;5063088;28;20052;-41
2022/04/12 05:46:11;;;;;;;14.68;7.15;;;;;;;1.35;90.95;95462.69;5064159;28;20048;-41
2022/04/12 05:48:38;;;;;;;14.80;7.63;;;;;;;1.48;90.77;95457.13;5063398;28;20037;-43
2022/04/12 05:51:05;;;;;;;15.55;8.45;;;;;;;1.55;89.04;95462.41;5063167;28;20110;-42
2022/04/12 05:53:32;;;;;;;18.77;8.40;;;;;;;1.57;88.89;95461.31;5062912;28;20135;-42
2022/04/12 05:55:59;;;;;;;18.38;8.20;;;;;;;1.64;88.99;95462.28;5062757;28;20055;-46
2022/04/12 05:58:26;;;;;;;18.80;7.78;;;;;;;1.72;87.52;95466.59;5063122;28;20056;-43
2022/04/12 06:00:53;;;;;;;18.35;9.45;;;;;;;1.86;87.82;95467.75;5064088;28;20071;-45
2022/04/12 06:03:19;;;;;;;13.25;7.93;;;;;;;2.01;88.26;95473.81;5065993;28;20060;-43
2022/04/12 06:05:49;;;;;;;13.00;7.07;;;;;;;2.16;88.47;95478.31;5063399;28;20121;-43
2022/04/12 06:08:15;;;;;;;14.90;7.28;;;;;;;2.13;88.20;95470.94;5063560;28;20063;-45
2022/04/12 06:10:42;;;;;;;15.00;8.13;;;;;;;2.25;88.80;95474.75;5064501;28;20044;-43
2022/04/12 06:13:09;;;;;;;11.70;6.70;;;;;;;2.37;88.26;95473.44;5065174;28;20075;-42
2022/04/12 06:15:36;;;;;;;14.23;8.32;;;;;;;2.53;86.56;95471.81;5065631;28;20102;-41
2022/04/12 06:18:07;;;;;;;16.55;8.23;;;;;;;2.59;86.81;95478.88;5064252;28;20056;-41
2022/04/12 06:20:34;;;;;;;13.75;6.68;;;;;;;2.74;85.61;95479.78;5065425;28;20047;-42
2022/04/12 06:23:01;;;;;;;14.88;8.65;;;;;;;2.87;83.66;95477.50;5064942;28;20153;-47
2022/04/12 06:25:27;;;;;;;16.40;7.35;;;;;;;3.00;83.36;95479.53;5064455;28;20044;-43
2022/04/12 06:27:54;;;;;;;18.02;8.02;;;;;;;3.06;83.15;95483.19;5066047;28;20048;-41
2022/04/12 06:30:22;;;;;;;14.65;5.78;;;;;;;3.19;83.33;95493.78;5065829;28;20487;-41
2022/04/12 06:32:49;;;;;;;10.73;6.80;;;;;;;3.37;81.77;95495.28;5065902;28;20968;-41
2022/04/12 06:35:16;;;;;;;12.05;6.97;;;;;;;3.51;80.36;95486.84;5064168;28;20044;-41
2022/04/12 06:37:45;;;;;;;14.82;7.68;;;;;;;3.69;81.19;95489.16;5065515;28;20494;-42
2022/04/12 06:40:14;;;;;;;17.30;7.57;;;;;;;3.82;81.54;95494.50;5065263;28;20040;-45
2022/04/12 06:42:41;;;;;;;14.80;8.45;;;;;;;3.87;79.90;95491.44;5060640;28;20178;-44
2022/04/12 06:45:09;;;;;;;13.43;6.95;;;;;;;4.08;79.29;95492.56;5061630;28;20060;-47
2022/04/12 06:47:36;;;;;;;8.73;5.30;;;;;;;4.27;77.79;95491.25;5064232;28;20466;-46
2022/04/12 06:50:03;;;;;;;22.88;5.72;;;;;;;4.33;76.06;95481.03;5063899;28;20052;-42
2022/04/12 06:52:31;;;;;;;12.32;5.07;;;;;;;4.46;74.87;95489.97;5064490;28;20049;-45
2022/04/12 06:54:58;;;;;;;17.63;9.13;;;;;;;4.52;72.72;95495.22;5062884;28;20060;-46
2022/04/12 06:57:25;;;;;;;15.48;7.82;;;;;;;4.76;73.49;95494.16;5064885;28;20572;-49
2022/04/12 06:59:52;;;;;;;13.93;6.03;;;;;;;4.92;71.81;95500.13;5064794;28;20045;-44
2022/04/12 07:02:18;;;;;;;9.25;5.05;;;;;;;5.07;72.74;95488.00;5064086;28;20056;-46
2022/04/12 07:04:45;;;;;;;9.75;5.72;;;;;;;5.20;72.70;95487.34;5062452;28;20052;-45
2022/04/12 07:07:12;;;;;;;15.02;5.28;;;;;;;5.30;69.69;95481.91;5064311;28;20044;-43
2022/04/12 07:09:39;;;;;;;13.30;5.05;;;;;;;5.41;70.37;95494.34;5064169;28;20052;-45
2022/04/12 07:12:06;;;;;;;9.48;4.95;;;;;;;5.37;70.57;95485.38;5064333;28;20040;-44
2022/04/12 07:14:33;;;;;;;6.78;4.03;;;;;;;5.42;70.77;95488.22;5064985;28;20830;-43
2022/04/12 07:17:00;;;;;;;7.97;3.35;;;;;;;5.57;69.73;95482.19;5064248;28;20460;-48
2022/04/12 07:19:27;;;;;;;7.95;4.15;;;;;;;5.60;69.32;95486.97;5064091;28;20065;-44
2022/04/12 07:21:53;;;;;;;8.30;3.83;;;;;;;5.73;68.77;95487.94;5064231;28;20875;-48
2022/04/12 07:24:20;;;;;;;11.38;5.07;;;;;;;5.77;68.87;95483.19;5062924;28;20052;-45
2022/04/12 07:26:47;;;;;;;12.52;5.78;;;;;;;5.93;68.57;95488.09;5063202;28;20049;-46
2022/04/12 07:29:15;;;;;;;11.30;4.90;;;;;;;6.10;67.19;95487.88;5062520;28;20569;-45
2022/04/12 07:31:42;;;;;;;10.23;4.45;;;;;;;6.16;68.13;95492.31;5063650;28;20080;-45
2022/04/12 07:34:09;;;;;;;10.07;3.85;;;;;;;6.41;67.39;95484.13;5062166;28;20538;-43
2022/04/12 07:36:39;;;;;;;8.63;4.18;;;;;;;6.59;64.87;95481.88;5063553;28;20395;-43
2022/04/12 07:39:15;;;;;;;9.98;4.43;;;;;;;6.82;64.11;95485.97;5062626;28;20044;-45
2022/04/12 07:41:42;;;;;;;12.02;5.30;;;;;;;6.92;62.32;95491.63;5063293;28;20066;-44
2022/04/12 07:44:09;;;;;;;20.08;9.10;;;;;;;7.05;59.54;95489.09;5063522;28;20043;-43
2022/04/12 07:46:35;;;;;;;12.13;5.65;;;;;;;7.00;61.75;95496.63;5063543;28;20052;-46
2022/04/12 07:49:02;;;;;;;10.25;4.40;;;;;;;6.99;58.68;95483.91;5062935;28;20067;-45
2022/04/12 07:51:29;;;;;;;20.05;7.35;;;;;;;7.12;60.09;95493.50;5064230;28;20071;-49
2022/04/12 07:53:56;;;;;;;12.60;5.18;;;;;;;7.33;62.05;95477.03;5063840;28;20438;-43
2022/04/12 07:56:23;;;;;;;9.93;4.70;;;;;;;7.49;58.27;95481.06;5063376;28;20804;-46
2022/04/12 07:58:50;;;;;;;7.82;3.35;;;;;;;7.38;56.48;95485.84;5062962;28;20040;-44
2022/04/12 08:01:16;;;;;;;7.57;3.53;;;;;;;7.41;56.85;95485.44;5062568;28;20618;-47
2022/04/12 08:03:43;;;;;;;8.70;3.42;;;;;;;7.56;56.28;95481.88;5063779;28;20072;-45
2022/04/12 08:06:10;;;;;;;7.80;3.15;;;;;;;7.65;54.34;95476.34;5065039;28;20702;-48
2022/04/12 08:08:37;;;;;;;5.97;2.85;;;;;;;7.85;54.39;95460.81;5063052;28;20044;-47
2022/04/12 08:11:06;;;;;;;4.97;2.80;;;;;;;7.99;53.96;95471.19;5064457;28;20052;-49
2022/04/12 08:13:33;;;;;;;6.10;3.22;;;;;;;8.09;54.52;95476.00;5064312;28;20044;-48
2022/04/12 08:16:00;;;;;;;8.60;3.03;;;;;;;8.27;53.06;95468.41;5064703;28;20079;-46
2022/04/12 08:18:27;;;;;;;7.82;3.10;;;;;;;8.32;52.35;95471.22;5063190;28;20052;-47
2022/04/12 08:20:54;;;;;;;10.18;3.38;;;;;;;8.47;54.84;95458.03;5063195;28;20044;-49
2022/04/12 08:23:22;;;;;;;11.20;2.90;;;;;;;8.68;51.38;95458.78;5063646;28;20128;-46
2022/04/12 08:25:50;;;;;;;6.72;3.03;;;;;;;8.91;51.75;95464.34;5063873;28;20106;-45
2022/04/12 08:28:17;;;;;;;6.45;3.65;;;;;;;8.95;49.49;95460.34;5063118;28;20048;-44
2022/04/12 08:30:49;;;;;;;6.72;3.08;;;;;;;9.11;50.06;95453.88;5064479;28;20048;-45
2022/04/12 08:33:16;;;;;;;5.70;2.83;;;;;;;9.34;49.52;95452.56;5064643;28;20063;-45
2022/04/12 08:35:43;;;;;;;6.53;2.88;;;;;;;9.56;48.03;95453.06;5060986;28;20055;-49
2022/04/12 08:38:10;;;;;;;4.55;3.03;;;;;;;9.38;47.54;95453.75;5061989;28;20041;-44
2022/04/12 08:40:38;;;;;;;8.00;3.10;;;;;;;9.35;47.98;95441.97;5063021;28;20486;-46
2022/04/12 08:43:07;;;;;;;6.18;2.13;;;;;;;9.21;43.02;95443.03;5064228;28;20090;-45
2022/04/12 08:45:36;;;;;;;4.50;1.77;;;;;;;9.30;42.88;95438.41;5064344;28;20375;-46
2022/04/12 08:48:05;;;;;;;7.43;2.47;;;;;;;9.43;44.08;95447.94;5064133;28;20143;-46
2022/04/12 08:50:32;;;;;;;4.75;2.42;;;;;;;9.33;44.40;95444.00;5064839;28;20040;-44
2022/04/12 08:53:00;;;;;;;3.78;1.88;;;;;;;9.42;43.84;95448.94;5064443;28;20464;-46
2022/04/12 08:55:27;;;;;;;4.40;2.25;;;;;;;9.28;43.58;95438.59;5066693;28;20048;-44
2022/04/12 08:57:54;;;;;;;4.70;2.17;;;;;;;9.37;44.49;95432.16;5064033;28;20437;-45
2022/04/12 09:00:21;;;;;;;6.03;2.50;;;;;;;9.53;44.17;95430.09;5064181;28;20049;-47
2022/04/12 09:02:57;;;;;;;4.72;2.63;;;;;;;9.52;44.37;95436.28;5063988;28;20048;-44
2022/04/12 09:05:25;;;;;;;5.38;2.67;;;;;;;9.66;43.65;95424.78;5064016;28;20115;-43
2022/04/12 09:07:52;;;;;;;3.70;2.20;;;;;;;9.73;42.30;95425.53;5064944;28;20110;-47
2022/04/12 09:10:22;;;;;;;6.53;2.42;;;;;;;9.81;43.58;95426.31;5063875;28;20036;-48
2022/04/12 09:12:49;;;;;;;4.82;2.97;;;;;;;9.96;42.60;95424.19;5063878;28;20076;-45
2022/04/12 09:15:15;;;;;;;4.28;2.40;;;;;;;10.13;44.19;95417.44;5064211;28;20040;-45
2022/04/12 09:17:44;;;;;;;4.35;2.13;;;;;;;10.37;42.06;95425.50;5064268;28;20044;-46
2022/04/12 09:20:18;;;;;;;2.33;1.55;;;;;;;10.66;42.65;95420.56;5062447;28;20040;-44
2022/04/12 09:22:46;;;;;;;3.15;1.88;;;;;;;10.87;39.85;95425.34;5063706;28;20045;-44
2022/04/12 09:25:15;;;;;;;4.13;2.22;;;;;;;10.58;40.24;95410.47;5063561;28;20059;-43
2022/04/12 09:27:45;;;;;;;6.78;1.95;;;;;;;10.65;39.52;95411.19;5063973;28;20056;-49
2022/04/12 09:30:13;;;;;;;7.57;2.05;;;;;;;10.68;39.36;95410.75;5064859;28;20048;-46
2022/04/12 09:32:44;;;;;;;3.08;2.25;;;;;;;10.56;36.64;95428.13;5063839;28;20044;-44
2022/04/12 09:35:11;;;;;;;2.83;1.42;;;;;;;10.52;38.48;95407.69;5063253;28;20045;-44
2022/04/12 09:37:40;;;;;;;3.97;2.13;;;;;;;10.45;37.01;95417.38;5068656;28;20068;-48
2022/04/12 09:40:09;;;;;;;4.03;2.00;;;;;;;10.54;37.70;95398.88;5067592;28;20041;-45
2022/04/12 09:42:39;;;;;;;2.10;1.45;;;;;;;10.80;36.54;95393.38;5066900;28;20090;-45
2022/04/12 09:45:07;;;;;;;4.72;1.90;;;;;;;11.06;38.29;95381.06;5067670;28;20047;-46
2022/04/12 09:47:34;;;;;;;3.20;2.28;;;;;;;11.19;36.96;95375.66;5066153;28;20048;-43
2022/04/12 09:50:23;;;;;;;5.53;2.10;;;;;;;11.31;36.59;95382.72;5066812;28;20045;-47
2022/04/12 09:52:58;;;;;;;3.17;1.98;;;;;;;11.43;37.34;95375.72;5066166;28;20102;-43
2022/04/12 09:55:46;;;;;;;8.85;1.92;;;;;;;11.52;35.59;95374.41;5066442;28;20048;-44
2022/04/12 09:58:14;;;;;;;1.02;0.88;;;;;;;11.58;33.52;95372.72;5060529;28;20047;-42
2022/04/12 10:00:42;;;;;;;8.98;1.30;;;;;;;11.71;36.77;95366.53;5066856;28;20128;-46
2022/04/12 10:03:12;;;;;;;2.58;1.52;;;;;;;11.64;36.27;95356.97;5066713;28;20071;-41
2022/04/12 10:05:39;;;;;;;2.90;1.33;;;;;;;11.64;35.33;95361.38;5064331;28;20049;-45
2022/04/12 10:08:10;;;;;;;1.42;1.20;;;;;;;11.89;34.26;95348.16;5064596;28;20044;-43
2022/04/12 10:10:40;;;;;;;2.90;1.30;;;;;;;11.92;36.46;95355.56;5065870;28;20049;-42
2022/04/12 10:13:09;;;;;;;3.38;2.10;;;;;;;11.66;35.97;95357.53;5065470;28;20078;-44
2022/04/12 10:15:37;;;;;;;3.13;1.58;;;;;;;11.67;33.32;95356.53;5064899;28;20044;-43
2022/04/12 10:18:04;;;;;;;1.83;1.10;;;;;;;11.64;33.47;95336.09;5064651;28;20522;-44
2022/04/12 10:20:31;;;;;;;4.43;2.42;;;;;;;11.73;34.78;95341.00;5064518;28;20080;-45
2022/04/12 10:22:59;;;;;;;6.57;1.35;;;;;;;11.84;33.24;95329.75;5067021;28;20049;-44
2022/04/12 10:25:28;;;;;;;1.98;1.27;;;;;;;11.87;33.28;95334.53;5064270;28;20072;-45
2022/04/12 10:27:59;;;;;;;2.10;0.95;;;;;;;11.98;33.30;95325.94;5064637;28;20608;-45
2022/04/12 10:30:28;;;;;;;3.50;1.42;;;;;;;12.23;33.92;95330.13;5063847;28;20036;-47
2022/04/12 10:33:29;;;;;;;2.45;1.23;;;;;;;12.59;33.53;95317.81;5065946;28;20569;-44
2022/04/12 10:35:58;;;;;;;2.05;1.30;;;;;;;12.69;33.34;95314.59;5031686;28;20558;-46
2022/04/12 10:38:39;;;;;;;3.83;1.77;;;;;;;12.81;32.40;95323.97;5066965;28;20048;-44
2022/04/12 10:41:17;;;;;;;4.55;1.35;;;;;;;12.85;33.20;95310.47;5065599;28;20033;-42
2022/04/12 10:43:44;;;;;;;4.57;1.58;;;;;;;13.20;33.16;95311.09;5065597;28;20059;-44
2022/04/12 10:46:18;;;;;;;2.03;1.25;;;;;;;13.25;33.89;95306.97;5065137;28;20036;-43
2022/04/12 10:48:54;;;;;;;3.60;1.30;;;;;;;13.18;32.45;95302.69;5064904;28;20049;-44
2022/04/12 10:51:38;;;;;;;3.45;1.83;;;;;;;12.94;31.64;95314.28;5065434;28;20044;-45
2022/04/12 10:54:34;;;;;;;2.45;1.10;;;;;;;13.02;32.30;95293.00;5065707;28;20052;-44
2022/04/12 10:57:19;;;;;;;2.75;1.52;;;;;;;13.23;31.36;95301.19;5064559;28;20051;-42
2022/04/12 11:00:08;;;;;;;4.28;2.05;;;;;;;13.42;30.17;95291.34;5064534;28;20052;-44
2022/04/12 11:02:42;;;;;;;5.50;2.67;;;;;;;13.72;30.75;95291.00;5064908;28;20051;-43
2022/04/12 11:05:28;;;;;;;5.60;1.20;;;;;;;13.55;30.88;95299.66;5064543;28;20521;-44
2022/04/12 11:07:55;;;;;;;3.95;1.10;;;;;;;13.68;31.48;95289.91;5063688;28;20048;-44
2022/04/12 11:10:23;;;;;;;2.78;0.80;;;;;;;13.54;30.52;95287.63;5065419;28;20118;-45
2022/04/12 11:13:04;;;;;;;2.35;1.40;;;;;;;13.66;29.53;95281.50;5065059;28;20052;-47
2022/04/12 11:15:33;;;;;;;2.88;1.10;;;;;;;13.63;30.02;95276.75;5063644;28;20528;-44
2022/04/12 11:18:18;;;;;;;1.33;0.70;;;;;;;13.50;29.96;95289.09;5061926;28;20043;-41
2022/04/12 11:20:58;;;;;;;3.50;1.23;;;;;;;13.62;30.33;95280.41;5063747;28;20076;-42
2022/04/12 11:23:47;;;;;;;4.78;1.23;;;;;;;13.50;30.90;95273.41;5063708;28;20441;-44
2022/04/12 11:26:36;;;;;;;8.50;2.60;;;;;;;13.61;28.85;95263.88;5063125;28;20117;-42
2022/04/12 11:29:16;;;;;;;2.53;0.98;;;;;;;13.97;28.13;95277.50;5062914;28;20127;-46
2022/04/12 11:31:54;;;;;;;1.58;1.00;;;;;;;14.07;29.13;95267.16;5063307;28;20045;-43
2022/04/12 11:34:26;;;;;;;4.57;1.70;;;;;;;14.42;30.45;95257.38;5063571;28;20475;-43